createdAt,value
2022-08-09T00:00:46.040Z,99911.86
2022-08-09T00:02:51.701Z,99909.97
2022-08-09T00:05:03.725Z,99910.26
2022-08-09T00:07:21.481Z,99910.83
2022-08-09T00:09:26.726Z,99909.42
2022-08-09T00:12:02.917Z,99910.39
2022-08-09T00:14:00.050Z,99903.25
2022-08-09T00:16:05.155Z,99901.43
2022-08-09T00:18:11.874Z,99903.31
2022-08-09T00:20:17.536Z,99905.88
2022-08-09T00:22:24.111Z,99905.22
2022-08-09T00:24:39.732Z,99902.80
2022-08-09T00:26:45.598Z,99907.53
2022-08-09T00:28:52.456Z,99903.83
2022-08-09T00:30:57.682Z,99904.83
2022-08-09T00:33:02.450Z,99903.30
2022-08-09T00:35:10.096Z,99906.55
2022-08-09T00:37:15.236Z,99903.31
2022-08-09T00:40:09.609Z,99908.20
2022-08-09T00:44:11.420Z,99907.04
2022-08-09T00:44:20.681Z,99911.21
2022-08-09T00:46:56.892Z,99906.45
2022-08-09T00:48:57.131Z,99910.53
2022-08-09T00:51:10.192Z,99913.88
2022-08-09T00:53:17.717Z,99910.39
2022-08-09T00:56:02.933Z,99908.20
2022-08-09T00:57:54.505Z,99909.86
2022-08-09T01:00:21.725Z,99911.05
2022-08-09T01:02:30.659Z,99907.36
2022-08-09T01:04:45.609Z,99902.94
2022-08-09T01:07:00.228Z,99904.98
2022-08-09T01:09:24.854Z,99901.30
2022-08-09T01:11:55.662Z,99905.38
2022-08-09T01:14:07.464Z,99900.88
2022-08-09T01:16:17.164Z,99905.73
2022-08-09T01:18:30.418Z,99912.09
2022-08-09T01:20:43.179Z,99910.08
2022-08-09T01:24:03.677Z,99910.59
2022-08-09T01:25:56.971Z,99912.77
2022-08-09T01:28:03.789Z,99908.71
2022-08-09T01:30:35.282Z,99905.59
2022-08-09T01:32:45.335Z,99903.63
2022-08-09T01:34:53.889Z,99900.70
2022-08-09T01:37:00.878Z,99900.44
2022-08-09T01:39:06.074Z,99893.89
2022-08-09T01:41:15.044Z,99891.85
2022-08-09T01:43:24.040Z,99890.80
2022-08-09T01:45:30.998Z,99894.68
2022-08-09T01:47:44.867Z,99895.35
2022-08-09T01:49:54.661Z,99892.58
2022-08-09T01:52:07.258Z,99888.29
2022-08-09T01:54:14.159Z,99890.79
2022-08-09T01:56:22.539Z,99893.98
2022-08-09T01:58:28.880Z,99897.23
2022-08-09T02:00:36.331Z,99895.84
2022-08-09T02:02:44.681Z,99898.23
2022-08-09T02:04:51.181Z,99901.13
2022-08-09T02:07:01.906Z,99903.73
2022-08-09T02:09:08.784Z,99900.11
2022-08-09T02:11:17.320Z,99904.84
2022-08-09T02:13:40.449Z,99901.84
2022-08-09T02:15:50.353Z,99901.89
2022-08-09T02:18:01.205Z,99897.91
2022-08-09T02:20:15.860Z,99895.30
2022-08-09T02:22:36.958Z,99898.45
2022-08-09T02:24:51.897Z,99896.88
2022-08-09T02:27:02.031Z,99897.25
2022-08-09T02:29:15.285Z,99898.21
2022-08-09T02:31:25.298Z,99898.15
2022-08-09T02:33:37.975Z,99898.23
2022-08-09T02:36:04.542Z,99900.80
2022-08-09T02:38:27.886Z,99896.16
2022-08-09T02:40:37.159Z,99899.59
2022-08-09T02:42:45.556Z,99897.42
2022-08-09T02:45:00.796Z,99898.96
2022-08-09T02:47:09.875Z,99896.46
2022-08-09T02:49:17.673Z,99895.97
2022-08-09T02:51:26.510Z,99893.95
2022-08-09T02:53:37.024Z,99891.52
2022-08-09T02:55:57.308Z,99891.79
2022-08-09T02:58:32.850Z,99891.71
2022-08-09T03:00:30.231Z,99887.15
2022-08-09T03:02:36.453Z,99885.73
2022-08-09T03:04:42.477Z,99885.55
2022-08-09T03:06:50.940Z,99884.16
2022-08-09T03:08:57.643Z,99884.69
2022-08-09T03:11:03.909Z,99885.08
2022-08-09T03:13:09.818Z,99886.58
2022-08-09T03:15:15.991Z,99882.02
2022-08-09T03:17:26.999Z,99882.52
2022-08-09T03:19:59.384Z,99883.18
2022-08-09T03:22:03.041Z,99881.40
2022-08-09T03:24:09.917Z,99883.95
2022-08-09T03:26:16.430Z,99879.51
2022-08-09T03:28:27.098Z,99879.96
2022-08-09T03:30:34.198Z,99880.30
2022-08-09T03:32:43.049Z,99878.69
2022-08-09T03:34:54.056Z,99880.73
2022-08-09T03:37:29.224Z,99880.67
2022-08-09T03:39:28.843Z,99886.43
2022-08-09T03:41:45.870Z,99885.90
2022-08-09T03:44:08.389Z,99882.15
2022-08-09T03:46:20.516Z,99881.80
2022-08-09T03:48:34.058Z,99884.91
2022-08-09T03:50:42.380Z,99889.20
2022-08-09T03:52:48.999Z,99888.31
2022-08-09T03:54:56.661Z,99887.81
2022-08-09T03:57:18.389Z,99885.38
2022-08-09T03:59:27.357Z,99888.25
2022-08-09T04:01:33.421Z,99882.85
2022-08-09T04:03:46.087Z,99880.09
2022-08-09T04:05:51.593Z,99880.22
2022-08-09T04:07:57.234Z,99880.51
2022-08-09T04:10:03.111Z,99881.80
2022-08-09T04:12:36.167Z,99882.83
2022-08-09T04:15:00.837Z,99890.05
2022-08-09T04:17:06.902Z,99890.98
2022-08-09T04:19:15.832Z,99890.73
2022-08-09T04:21:36.341Z,99890.77
2022-08-09T04:23:53.930Z,99889.41
2022-08-09T04:26:02.342Z,99889.27
2022-08-09T04:28:07.586Z,99893.73
2022-08-09T04:30:15.123Z,99894.85
2022-08-09T04:32:23.673Z,99895.64
2022-08-09T04:34:36.390Z,99894.50
2022-08-09T04:36:45.281Z,99891.73
2022-08-09T04:38:56.381Z,99899.57
2022-08-09T04:41:01.157Z,99898.35
2022-08-09T04:43:05.919Z,99895.36
2022-08-09T04:45:12.363Z,99899.10
2022-08-09T04:47:17.824Z,99900.27
2022-08-09T04:49:40.111Z,99895.25
2022-08-09T04:51:47.308Z,99893.67
2022-08-09T04:53:54.334Z,99893.62
2022-08-09T04:56:03.755Z,99896.45
2022-08-09T04:58:09.430Z,99897.02
2022-08-09T05:00:16.632Z,99898.59
2022-08-09T05:02:21.931Z,99902.17
2022-08-09T05:04:30.658Z,99904.27
2022-08-09T05:06:36.261Z,99903.70
2022-08-09T05:08:43.988Z,99907.25
2022-08-09T05:10:52.994Z,99909.36
2022-08-09T05:12:57.841Z,99915.70
2022-08-09T05:15:11.531Z,99913.44
2022-08-09T05:18:50.461Z,99915.42
2022-08-09T05:19:46.022Z,99915.52
2022-08-09T05:21:55.770Z,99912.63
2022-08-09T05:24:02.451Z,99916.67
2022-08-09T05:26:09.364Z,99918.52
2022-08-09T05:28:26.993Z,99920.06
2022-08-09T05:30:32.053Z,99921.59
2022-08-09T05:32:37.892Z,99915.73
2022-08-09T05:34:46.780Z,99921.39
2022-08-09T05:36:52.564Z,99920.15
2022-08-09T05:38:57.508Z,99926.04
2022-08-09T05:41:02.257Z,99925.19
2022-08-09T05:43:07.730Z,99920.61
2022-08-09T05:45:14.493Z,99920.56
2022-08-09T05:47:23.249Z,99923.41
2022-08-09T05:49:51.675Z,99926.52
2022-08-09T05:51:53.413Z,99921.23
2022-08-09T05:53:59.071Z,99921.91
2022-08-09T05:56:06.021Z,99922.14
2022-08-09T05:58:18.347Z,99922.91
2022-08-09T06:03:19.842Z,99923.73
2022-08-09T06:05:31.284Z,99930.98
2022-08-09T06:08:05.199Z,99929.02
2022-08-09T06:10:15.657Z,99931.73
2022-08-09T06:12:21.098Z,99931.79
2022-08-09T06:14:31.634Z,99924.05
2022-08-09T06:16:36.657Z,99927.58
2022-08-09T06:18:43.995Z,99926.97
2022-08-09T06:20:54.346Z,99918.38
2022-08-09T06:23:01.229Z,99922.28
2022-08-09T06:25:08.909Z,99920.83
2022-08-09T06:27:17.272Z,99921.05
2022-08-09T06:29:22.813Z,99922.56
2022-08-09T06:31:31.254Z,99924.81
2022-08-09T06:33:48.685Z,99917.86
2022-08-09T06:35:58.599Z,99919.73
2022-08-09T06:38:05.942Z,99918.58
2022-08-09T06:40:17.746Z,99917.77
2022-08-09T06:42:30.796Z,99921.12
2022-08-09T06:44:38.518Z,99922.55
2022-08-09T06:46:43.463Z,99925.36
2022-08-09T06:48:50.297Z,99921.33
2022-08-09T06:51:04.411Z,99925.50
2022-08-09T06:53:09.944Z,99928.25
2022-08-09T06:55:17.432Z,99922.98
2022-08-09T06:57:42.395Z,99930.16
2022-08-09T07:00:54.358Z,99913.77
2022-08-09T07:02:11.595Z,99921.02
2022-08-09T07:04:21.641Z,99922.65
2022-08-09T07:06:29.749Z,99920.99
2022-08-09T07:08:39.490Z,99924.96
2022-08-09T07:10:44.645Z,99928.23
2022-08-09T07:12:57.431Z,99929.98
2022-08-09T07:15:53.251Z,99933.48
2022-08-09T07:17:27.463Z,99938.05
2022-08-09T07:19:44.867Z,99932.20
2022-08-09T07:21:57.010Z,99934.51
2022-08-09T07:24:04.988Z,99934.06
2022-08-09T07:26:10.056Z,99935.75
2022-08-09T07:28:19.042Z,99942.16
2022-08-09T07:30:33.024Z,99943.54
2022-08-09T07:32:38.169Z,99939.53
2022-08-09T07:34:45.135Z,99943.09
2022-08-09T07:36:52.833Z,99944.03
2022-08-09T07:39:00.656Z,99948.61
2022-08-09T07:41:11.924Z,99948.91
2022-08-09T07:43:17.798Z,99953.14
2022-08-09T07:45:37.284Z,99943.66
2022-08-09T07:48:00.763Z,99944.38
2022-08-09T07:50:09.448Z,99944.73
2022-08-09T07:52:17.083Z,99942.77
2022-08-09T07:54:28.152Z,99941.52
2022-08-09T07:56:36.947Z,99943.77
2022-08-09T07:58:44.113Z,99946.08
2022-08-09T08:00:59.218Z,99934.16
2022-08-09T08:03:11.472Z,99932.02
2022-08-09T08:05:17.952Z,99938.20
2022-08-09T08:08:42.624Z,99937.53
2022-08-09T08:09:53.616Z,99929.87
2022-08-09T08:12:27.845Z,99931.68
2022-08-09T08:14:34.249Z,99932.26
2022-08-09T08:16:39.671Z,99937.56
2022-08-09T08:18:56.051Z,99925.96
2022-08-09T08:21:00.790Z,99930.85
2022-08-09T08:23:16.641Z,99923.92
2022-08-09T08:25:25.208Z,99928.58
2022-08-09T08:27:49.978Z,99925.73
2022-08-09T08:29:55.677Z,99921.52
2022-08-09T08:32:04.047Z,99922.27
2022-08-09T08:34:10.867Z,99930.17
2022-08-09T08:36:28.318Z,99919.70
2022-08-09T08:38:34.736Z,99915.85
2022-08-09T08:40:41.329Z,99913.02
2022-08-09T08:42:47.619Z,99921.08
2022-08-09T08:44:56.573Z,99918.23
2022-08-09T08:47:12.168Z,99913.92
2022-08-09T08:49:18.977Z,99909.05
2022-08-09T08:51:25.090Z,99907.15
2022-08-09T08:53:36.825Z,99918.33
2022-08-09T08:55:43.045Z,99913.91
2022-08-09T08:57:56.391Z,99915.05
2022-08-09T09:00:08.170Z,99906.75
2022-08-09T09:02:30.952Z,99915.80
2022-08-09T09:04:47.777Z,99904.91
2022-08-09T09:07:03.207Z,99906.27
2022-08-09T09:09:20.826Z,99903.08
2022-08-09T09:11:38.619Z,99918.81
2022-08-09T09:13:55.097Z,99918.05
2022-08-09T09:16:03.271Z,99914.46
2022-08-09T09:18:13.261Z,99909.08
2022-08-09T09:20:21.264Z,99924.54
2022-08-09T09:22:28.807Z,99919.46
2022-08-09T09:24:37.933Z,99919.95
2022-08-09T09:26:53.796Z,99917.73
2022-08-09T09:29:04.127Z,99913.25
2022-08-09T09:32:06.669Z,99919.36
2022-08-09T09:33:44.430Z,99912.34
2022-08-09T09:36:01.346Z,99904.45
2022-08-09T09:38:27.551Z,99914.39
2022-08-09T09:40:46.152Z,99909.16
2022-08-09T09:42:58.200Z,99910.73
2022-08-09T09:45:06.806Z,99905.34
2022-08-09T09:47:17.040Z,99913.17
2022-08-09T09:49:56.426Z,99907.61
2022-08-09T09:51:59.719Z,99907.59
2022-08-09T09:54:21.170Z,99903.53
2022-08-09T09:56:34.179Z,99905.73
2022-08-09T09:58:49.204Z,99909.14
2022-08-09T10:00:59.467Z,99902.92
2022-08-09T10:03:09.138Z,99899.95
2022-08-09T10:05:16.895Z,99899.59
2022-08-09T10:07:32.399Z,99902.10
2022-08-09T10:09:58.028Z,99897.96
2022-08-09T10:12:25.869Z,99900.99
2022-08-09T10:14:33.979Z,99894.67
2022-08-09T10:16:57.883Z,99896.75
2022-08-09T10:19:10.182Z,99880.29
2022-08-09T10:21:15.054Z,99878.80
2022-08-09T10:23:22.144Z,99891.11
2022-08-09T10:25:34.765Z,99892.56
2022-08-09T10:27:57.308Z,99882.66
2022-08-09T10:30:33.445Z,99875.13
2022-08-09T10:32:42.347Z,99885.07
2022-08-09T10:34:49.339Z,99880.31
2022-08-09T10:36:55.881Z,99874.05
2022-08-09T10:39:02.309Z,99878.44
2022-08-09T10:41:07.787Z,99878.61
2022-08-09T10:43:14.427Z,99872.72
2022-08-09T10:45:20.344Z,99873.09
2022-08-09T10:48:20.499Z,99864.67
2022-08-09T10:50:15.242Z,99872.63
2022-08-09T10:52:36.354Z,99871.33
2022-08-09T10:54:41.370Z,99867.23
2022-08-09T10:56:47.612Z,99858.97
2022-08-09T10:58:54.058Z,99862.09
2022-08-09T11:03:02.861Z,99855.42
2022-08-09T11:03:27.556Z,99861.23
2022-08-09T11:06:22.925Z,99855.36
2022-08-09T11:08:47.326Z,99856.16
2022-08-09T11:10:59.778Z,99850.59
2022-08-09T11:13:51.294Z,99845.45
2022-08-09T11:16:04.365Z,99848.48
2022-08-09T11:18:09.804Z,99843.65
2022-08-09T11:20:20.214Z,99839.84
2022-08-09T11:23:07.081Z,99848.73
2022-08-09T11:25:16.015Z,99839.95
2022-08-09T11:28:04.204Z,99846.02
2022-08-09T11:30:06.467Z,99843.46
2022-08-09T11:32:42.540Z,99841.94
2022-08-09T11:34:51.880Z,99841.55
2022-08-09T11:36:59.135Z,99838.75
2022-08-09T11:39:04.452Z,99842.44
2022-08-09T11:41:26.641Z,99840.38
2022-08-09T11:43:47.390Z,99838.98
2022-08-09T11:45:57.709Z,99839.77
2022-08-09T11:48:11.108Z,99835.14
2022-08-09T11:50:55.431Z,99824.84
2022-08-09T11:53:57.961Z,99843.87
2022-08-09T11:55:53.192Z,99839.42
2022-08-09T11:58:02.145Z,99835.55
2022-08-09T12:00:16.401Z,99838.80
2022-08-09T12:02:37.413Z,99834.75
2022-08-09T12:04:44.802Z,99828.67
2022-08-09T12:06:56.033Z,99825.03
2022-08-09T12:09:02.520Z,99833.80
2022-08-09T12:11:12.757Z,99836.06
2022-08-09T12:14:08.295Z,99832.02
2022-08-09T12:16:02.424Z,99826.85
2022-08-09T12:18:18.087Z,99827.35
2022-08-09T12:20:35.130Z,99823.77
2022-08-09T12:22:40.298Z,99820.45
2022-08-09T12:24:45.643Z,99818.31
2022-08-09T12:29:10.729Z,99817.48
2022-08-09T12:29:33.658Z,99812.63
2022-08-09T12:31:58.785Z,99811.98
2022-08-09T12:34:07.604Z,99808.55
2022-08-09T12:36:27.633Z,99808.27
2022-08-09T12:38:38.072Z,99808.73
2022-08-09T12:40:48.076Z,99815.27
2022-08-09T12:42:57.578Z,99806.06
2022-08-09T12:45:32.155Z,99805.80
2022-08-09T12:47:37.581Z,99807.82
2022-08-09T12:49:51.314Z,99806.19
2022-08-09T12:52:03.478Z,99810.21
2022-08-09T12:54:10.039Z,99804.81
2022-08-09T12:56:43.620Z,99801.34
2022-08-09T12:58:45.340Z,99804.42
2022-08-09T13:00:52.771Z,99802.27
2022-08-09T13:02:59.599Z,99799.34
2022-08-09T13:05:05.293Z,99799.05
2022-08-09T13:07:14.752Z,99796.66
2022-08-09T13:09:26.339Z,99788.92
2022-08-09T13:11:39.548Z,99804.02
2022-08-09T13:14:36.966Z,99799.46
2022-08-09T13:16:13.638Z,99808.16
2022-08-09T13:18:18.500Z,99801.20
2022-08-09T13:20:37.843Z,99801.86
2022-08-09T13:23:16.411Z,99800.94
2022-08-09T13:25:25.662Z,99796.48
2022-08-09T13:27:39.418Z,99813.30
2022-08-09T13:30:04.135Z,99801.95
2022-08-09T13:32:27.567Z,99792.17
2022-08-09T13:34:34.923Z,99796.92
2022-08-09T13:36:43.240Z,99802.27
2022-08-09T13:38:55.040Z,99802.70
2022-08-09T13:41:51.583Z,99802.08
2022-08-09T13:43:35.827Z,99799.23
2022-08-09T13:46:44.680Z,99795.80
2022-08-09T13:48:10.878Z,99802.19
2022-08-09T13:50:29.886Z,99788.50
2022-08-09T13:52:36.695Z,99796.51
2022-08-09T13:54:49.004Z,99801.65
2022-08-09T13:57:06.451Z,99791.17
2022-08-09T13:59:11.533Z,99797.52
2022-08-09T14:02:00.951Z,99802.59
2022-08-09T14:04:03.339Z,99797.60
2022-08-09T14:06:14.729Z,99799.52
2022-08-09T14:08:24.538Z,99801.90
2022-08-09T14:10:45.991Z,99797.14
2022-08-09T14:12:51.455Z,99794.33
2022-08-09T14:14:57.100Z,99810.92
2022-08-09T14:17:02.133Z,99806.96
2022-08-09T14:19:07.034Z,99799.92
2022-08-09T14:21:12.014Z,99805.23
2022-08-09T14:23:20.438Z,99809.29
2022-08-09T14:25:45.159Z,99807.45
2022-08-09T14:27:58.230Z,99807.98
2022-08-09T14:30:37.040Z,99805.97
2022-08-09T14:32:31.750Z,99806.41
2022-08-09T14:34:37.238Z,99808.38
2022-08-09T14:36:46.592Z,99798.23
2022-08-09T14:38:53.537Z,99800.80
2022-08-09T14:41:02.081Z,99800.23
2022-08-09T14:43:18.597Z,99807.06
2022-08-09T14:46:56.645Z,99808.10
2022-08-09T14:47:58.249Z,99810.21
2022-08-09T14:50:05.818Z,99810.84
2022-08-09T14:52:10.579Z,99804.63
2022-08-09T14:54:15.277Z,99799.87
2022-08-09T14:56:26.935Z,99800.68
2022-08-09T14:58:34.958Z,99806.57
2022-08-09T15:00:50.929Z,99806.71
2022-08-09T15:02:56.071Z,99802.43
2022-08-09T15:05:03.133Z,99800.92
2022-08-09T15:07:11.532Z,99804.29
2022-08-09T15:10:03.428Z,99807.73
2022-08-09T15:11:49.606Z,99803.06
2022-08-09T15:13:57.310Z,99796.48
2022-08-09T15:16:13.203Z,99800.48
2022-08-09T15:18:17.962Z,99795.62
2022-08-09T15:21:57.379Z,99799.58
2022-08-09T15:22:49.026Z,99806.45
2022-08-09T15:25:09.128Z,99798.92
2022-08-09T15:27:14.076Z,99797.38
2022-08-09T15:30:56.976Z,99804.51
2022-08-09T15:31:44.656Z,99795.27
2022-08-09T15:34:17.173Z,99801.43
2022-08-09T15:36:14.607Z,99811.23
2022-08-09T15:38:19.745Z,99808.42
2022-08-09T15:40:32.004Z,99812.23
2022-08-09T15:42:40.035Z,99801.17
2022-08-09T15:44:47.842Z,99799.80
2022-08-09T15:46:52.639Z,99800.38
2022-08-09T15:49:20.663Z,99802.60
2022-08-09T15:51:44.346Z,99806.03
2022-08-09T15:54:07.974Z,99802.39
2022-08-09T15:56:29.393Z,99800.02
2022-08-09T15:58:35.883Z,99799.91
2022-08-09T16:00:40.614Z,99802.19
2022-08-09T16:02:53.392Z,99801.91
2022-08-09T16:04:59.122Z,99796.67
2022-08-09T16:07:09.571Z,99793.08
2022-08-09T16:09:15.673Z,99795.63
2022-08-09T16:11:20.589Z,99802.02
2022-08-09T16:14:06.232Z,99792.88
2022-08-09T16:16:09.856Z,99793.75
2022-08-09T16:18:16.134Z,99796.64
2022-08-09T16:20:20.875Z,99799.27
2022-08-09T16:22:35.412Z,99794.36
2022-08-09T16:24:40.430Z,99793.26
2022-08-09T16:26:48.768Z,99800.48
2022-08-09T16:28:56.963Z,99794.88
2022-08-09T16:31:01.662Z,99795.79
2022-08-09T16:33:06.497Z,99789.75
2022-08-09T16:35:19.113Z,99787.19
2022-08-09T16:37:55.474Z,99793.27
2022-08-09T16:40:04.810Z,99793.64
2022-08-09T16:42:10.741Z,99793.30
2022-08-09T16:44:19.694Z,99792.63
2022-08-09T16:46:27.497Z,99794.64
2022-08-09T16:48:50.430Z,99793.06
2022-08-09T16:50:59.748Z,99799.59
2022-08-09T16:53:16.253Z,99806.40
2022-08-09T16:55:21.266Z,99801.68
2022-08-09T16:57:26.154Z,99798.98
2022-08-09T16:59:57.453Z,99804.14
2022-08-09T17:02:05.705Z,99802.50
2022-08-09T17:04:10.545Z,99803.74
2022-08-09T17:06:33.355Z,99807.42
2022-08-09T17:08:43.671Z,99811.05
2022-08-09T17:10:53.235Z,99800.42
2022-08-09T17:12:58.985Z,99799.83
2022-08-09T17:15:31.408Z,99805.80
2022-08-09T17:17:31.166Z,99795.21
2022-08-09T17:20:28.260Z,99805.94
2022-08-09T17:22:23.821Z,99801.30
2022-08-09T17:24:30.981Z,99799.85
2022-08-09T17:26:38.450Z,99800.77
2022-08-09T17:28:43.824Z,99807.78
2022-08-09T17:30:48.749Z,99804.13
2022-08-09T17:33:05.254Z,99805.48
2022-08-09T17:35:12.743Z,99805.47
2022-08-09T17:37:19.959Z,99808.30
2022-08-09T17:39:26.027Z,99808.41
2022-08-09T17:41:50.812Z,99811.02
2022-08-09T17:44:42.069Z,99816.81
2022-08-09T17:46:20.640Z,99818.98
2022-08-09T17:48:51.935Z,99819.21
2022-08-09T17:50:59.535Z,99818.20
2022-08-09T17:53:22.262Z,99821.66
2022-08-09T17:55:47.375Z,99826.36
2022-08-09T17:58:05.394Z,99829.48
2022-08-09T18:00:15.082Z,99834.70
2022-08-09T18:02:26.061Z,99834.80
2022-08-09T18:04:36.279Z,99836.48
2022-08-09T18:06:54.151Z,99838.20
2022-08-09T18:09:00.693Z,99838.80
2022-08-09T18:11:05.648Z,99840.54
2022-08-09T18:13:53.530Z,99843.48
2022-08-09T18:15:50.667Z,99852.29
2022-08-09T18:18:08.121Z,99850.82
2022-08-09T18:20:53.734Z,99855.00
2022-08-09T18:22:40.178Z,99852.58
2022-08-09T18:24:55.727Z,99850.80
2022-08-09T18:27:02.745Z,99854.58
2022-08-09T18:30:38.193Z,99848.65
2022-08-09T18:31:55.013Z,99858.35
2022-08-09T18:34:01.385Z,99858.94
2022-08-09T18:36:08.401Z,99864.16
2022-08-09T18:38:20.394Z,99872.70
2022-08-09T18:40:26.849Z,99879.27
2022-08-09T18:42:35.341Z,99882.06
2022-08-09T18:44:44.511Z,99882.92
2022-08-09T18:47:04.832Z,99887.19
2022-08-09T18:49:14.214Z,99895.88
2022-08-09T18:51:19.344Z,99895.56
2022-08-09T18:53:56.528Z,99896.35
2022-08-09T18:56:07.717Z,99902.70
2022-08-09T18:58:13.950Z,99900.81
2022-08-09T19:00:37.527Z,99909.51
2022-08-09T19:02:43.827Z,99913.16
2022-08-09T19:05:03.413Z,99915.34
2022-08-09T19:07:13.656Z,99921.45
2022-08-09T19:10:14.638Z,99923.50
2022-08-09T19:11:46.145Z,99921.48
2022-08-09T19:13:54.768Z,99923.84
2022-08-09T19:16:05.493Z,99924.00
2022-08-09T19:18:17.214Z,99925.17
2022-08-09T19:20:39.245Z,99931.44
2022-08-09T19:22:54.153Z,99930.63
2022-08-09T19:25:11.498Z,99933.31
2022-08-09T19:27:28.814Z,99939.42
2022-08-09T19:30:21.206Z,99942.10
2022-08-09T19:31:59.971Z,99940.23
2022-08-09T19:34:05.291Z,99942.92
2022-08-09T19:36:22.994Z,99942.89
2022-08-09T19:38:28.513Z,99941.52
2022-08-09T19:40:35.072Z,99939.79
2022-08-09T19:42:40.016Z,99942.73
2022-08-09T19:44:51.215Z,99943.05
2022-08-09T19:46:56.711Z,99944.36
2022-08-09T19:50:06.828Z,99945.89
2022-08-09T19:51:27.006Z,99950.83
2022-08-09T19:53:37.183Z,99955.23
2022-08-09T19:56:02.535Z,99956.70
2022-08-09T19:58:15.872Z,99958.12
2022-08-09T20:00:21.822Z,99961.01
2022-08-09T20:04:11.032Z,99957.89
2022-08-09T20:04:55.093Z,99959.54
2022-08-09T20:07:00.565Z,99961.92
2022-08-09T20:09:08.861Z,99961.65
2022-08-09T20:11:43.444Z,99960.77
2022-08-09T20:13:57.108Z,99961.48
2022-08-09T20:16:33.646Z,99965.73
2022-08-09T20:18:28.467Z,99964.69
2022-08-09T20:20:33.605Z,99969.48
2022-08-09T20:22:44.647Z,99961.03
2022-08-09T20:24:53.907Z,99961.73
2022-08-09T20:26:59.718Z,99962.55
2022-08-09T20:29:18.573Z,99965.70
2022-08-09T20:31:23.778Z,99968.70
2022-08-09T20:33:28.928Z,99972.02
2022-08-09T20:35:45.381Z,99967.55
2022-08-09T20:38:22.383Z,99970.31
2022-08-09T20:40:26.620Z,99972.91
2022-08-09T20:42:35.662Z,99979.42
2022-08-09T20:45:00.391Z,99973.36
2022-08-09T20:47:23.904Z,99975.68
2022-08-09T20:49:35.663Z,99973.98
2022-08-09T20:51:41.111Z,99973.11
2022-08-09T20:53:46.724Z,99970.65
2022-08-09T20:56:00.634Z,99970.75
2022-08-09T20:58:08.145Z,99966.02
2022-08-09T21:00:31.624Z,99966.32
2022-08-09T21:02:37.025Z,99974.09
2022-08-09T21:05:54.868Z,99975.82
2022-08-09T21:07:11.678Z,99972.87
2022-08-09T21:09:32.618Z,99973.72
2022-08-09T21:14:08.042Z,99973.02
2022-08-09T21:16:19.525Z,99972.15
2022-08-09T21:18:27.695Z,99968.38
2022-08-09T21:20:32.985Z,99972.34
2022-08-09T21:22:46.716Z,99973.75
2022-08-09T21:24:52.126Z,99968.79
2022-08-09T21:26:56.808Z,99968.83
2022-08-09T21:29:01.923Z,99969.67
2022-08-09T21:31:20.013Z,99968.79
2022-08-09T21:33:25.021Z,99970.30
2022-08-09T21:35:50.815Z,99970.79
2022-08-09T21:37:58.860Z,99970.19
2022-08-09T21:40:10.680Z,99972.59
2022-08-09T21:42:15.634Z,99973.00
2022-08-09T21:44:33.731Z,99967.08
2022-08-09T21:46:39.908Z,99968.29
2022-08-09T21:48:49.398Z,99971.11
2022-08-09T21:50:54.386Z,99971.38
2022-08-09T21:52:59.727Z,99967.99
2022-08-09T21:55:07.399Z,99963.69
2022-08-09T21:57:25.494Z,99966.02
2022-08-09T21:59:42.705Z,99962.37
2022-08-09T22:01:59.385Z,99962.14
2022-08-09T22:04:06.550Z,99959.67
2022-08-09T22:06:11.484Z,99960.14
2022-08-09T22:08:17.036Z,99959.96
2022-08-09T22:10:23.928Z,99960.98
2022-08-09T22:12:30.791Z,99960.58
2022-08-09T22:14:36.235Z,99961.86
2022-08-09T22:16:40.859Z,99962.56
2022-08-09T22:18:54.554Z,99961.23
2022-08-09T22:20:59.853Z,99960.63
2022-08-09T22:23:05.309Z,99960.83
2022-08-09T22:26:06.652Z,99959.73
2022-08-09T22:27:40.511Z,99964.02
2022-08-09T22:29:50.074Z,99963.39
2022-08-09T22:31:57.543Z,99961.14
2022-08-09T22:34:02.639Z,99961.82
2022-08-09T22:36:09.143Z,99964.46
2022-08-09T22:38:14.746Z,99959.86
2022-08-09T22:40:20.397Z,99962.02
2022-08-09T22:42:25.307Z,99958.20
2022-08-09T22:44:33.044Z,99960.52
2022-08-09T22:48:10.862Z,99955.94
2022-08-09T22:49:09.860Z,99961.98
2022-08-09T22:51:23.725Z,99955.48
2022-08-09T22:53:44.440Z,99955.84
2022-08-09T22:56:29.476Z,99960.83
2022-08-09T22:58:20.365Z,99960.25
2022-08-09T23:00:37.561Z,99961.70
2022-08-09T23:02:45.093Z,99959.70
2022-08-09T23:04:54.189Z,99961.95
2022-08-09T23:06:59.327Z,99960.92
2022-08-09T23:09:05.397Z,99956.02
2022-08-09T23:11:10.225Z,99957.95
2022-08-09T23:13:15.020Z,99957.73
2022-08-09T23:15:19.767Z,99957.23
2022-08-09T23:17:24.547Z,99955.48
2022-08-09T23:19:29.386Z,99964.73
2022-08-09T23:21:54.189Z,99961.36
2022-08-09T23:24:05.915Z,99960.73
2022-08-09T23:26:11.722Z,99958.59
2022-08-09T23:28:16.487Z,99955.92
2022-08-09T23:30:21.530Z,99961.26
2022-08-09T23:32:26.216Z,99952.23
2022-08-09T23:34:30.985Z,99954.22
2022-08-09T23:36:36.177Z,99948.90
2022-08-09T23:38:49.226Z,99949.98
2022-08-09T23:40:54.453Z,99953.40
2022-08-09T23:42:59.170Z,99951.05
2022-08-09T23:45:04.409Z,99950.73
2022-08-09T23:47:12.076Z,99949.10
2022-08-09T23:49:16.950Z,99950.88
2022-08-09T23:51:30.177Z,99952.08
2022-08-09T23:53:37.663Z,99957.02
2022-08-09T23:55:49.885Z,99955.50
2022-08-09T23:58:10.297Z,99953.08
